sensor_id;sensor_type;location;lat;lon;timestamp;pressure;altitude;pressure_sealevel;temperature;humidity
1776;BME280;885;42.626;23.200;2023-02-03T00:00:38;165516.69;;;1.38;92.27
1776;BME280;885;42.626;23.200;2023-02-03T00:03:05;165544.09;;;1.48;94.12
1776;BME280;885;42.626;23.200;2023-02-03T00:05:33;165550.91;;;1.51;95.73
1776;BME280;885;42.626;23.200;2023-02-03T00:08:02;165581.03;;;1.62;96.40
1776;BME280;885;42.626;23.200;2023-02-03T00:10:29;165589.28;;;1.65;97.70
1776;BME280;885;42.626;23.200;2023-02-03T00:12:56;165570.09;;;1.58;98.79
1776;BME280;885;42.626;23.200;2023-02-03T00:15:24;165568.72;;;1.57;98.86
1776;BME280;885;42.626;23.200;2023-02-03T00:17:52;165572.84;;;1.59;99.66
1776;BME280;885;42.626;23.200;2023-02-03T00:20:19;165549.59;;;1.50;100.00
1776;BME280;885;42.626;23.200;2023-02-03T00:22:45;165546.81;;;1.49;100.00
1776;BME280;885;42.626;23.200;2023-02-03T00:25:13;165496.16;;;1.31;100.00
1776;BME280;885;42.626;23.200;2023-02-03T00:27:40;165456.47;;;1.16;100.00
1776;BME280;885;42.626;23.200;2023-02-03T00:30:08;165444.13;;;1.12;100.00
1776;BME280;885;42.626;23.200;2023-02-03T00:32:36;165401.75;;;0.96;100.00
1776;BME280;885;42.626;23.200;2023-02-03T00:35:07;165456.47;;;1.16;100.00
1776;BME280;885;42.626;23.200;2023-02-03T00:37:33;165483.84;;;1.26;100.00
1776;BME280;885;42.626;23.200;2023-02-03T00:40:00;165467.41;;;1.20;100.00
1776;BME280;885;42.626;23.200;2023-02-03T00:42:27;165497.53;;;1.31;100.00
1776;BME280;885;42.626;23.200;2023-02-03T00:44:54;165507.13;;;1.35;100.00
1776;BME280;885;42.626;23.200;2023-02-03T00:47:20;165479.75;;;1.25;99.83
1776;BME280;885;42.626;23.200;2023-02-03T00:49:48;165382.56;;;0.89;97.38
1776;BME280;885;42.626;23.200;2023-02-03T00:52:15;165426.34;;;1.05;96.35
1776;BME280;885;42.626;23.200;2023-02-03T00:54:42;165430.47;;;1.07;96.73
1776;BME280;885;42.626;23.200;2023-02-03T00:57:09;165459.22;;;1.17;97.53
1776;BME280;885;42.626;23.200;2023-02-03T00:59:35;165437.28;;;1.09;96.39
1776;BME280;885;42.626;23.200;2023-02-03T01:02:02;165429.09;;;1.06;95.98
1776;BME280;885;42.626;23.200;2023-02-03T01:04:29;165412.69;;;1.00;97.51
1776;BME280;885;42.626;23.200;2023-02-03T01:06:57;165429.09;;;1.06;97.34
1776;BME280;885;42.626;23.200;2023-02-03T01:09:24;165401.75;;;0.96;97.57
1776;BME280;885;42.626;23.200;2023-02-03T01:11:51;165366.16;;;0.83;98.78
1776;BME280;885;42.626;23.200;2023-02-03T01:14:18;165396.28;;;0.94;99.22
1776;BME280;885;42.626;23.200;2023-02-03T01:16:45;165333.31;;;0.71;100.00
1776;BME280;885;42.626;23.200;2023-02-03T01:19:11;165327.84;;;0.69;100.00
1776;BME280;885;42.626;23.200;2023-02-03T01:21:39;165355.22;;;0.79;100.00
1776;BME280;885;42.626;23.200;2023-02-03T01:24:07;165386.66;;;0.91;100.00
1776;BME280;885;42.626;23.200;2023-02-03T01:26:34;165342.88;;;0.74;99.76
1776;BME280;885;42.626;23.200;2023-02-03T01:29:01;165355.22;;;0.79;97.66
1776;BME280;885;42.626;23.200;2023-02-03T01:31:30;165344.25;;;0.75;97.56
1776;BME280;885;42.626;23.200;2023-02-03T01:33:59;165337.41;;;0.72;99.43
1776;BME280;885;42.626;23.200;2023-02-03T01:36:28;165379.81;;;0.88;98.45
1776;BME280;885;42.626;23.200;2023-02-03T01:38:56;165308.66;;;0.62;97.93
1776;BME280;885;42.626;23.200;2023-02-03T01:41:26;165305.91;;;0.61;98.93
1776;BME280;885;42.626;23.200;2023-02-03T01:43:56;165290.88;;;0.55;98.78
1776;BME280;885;42.626;23.200;2023-02-03T01:46:26;165266.25;;;0.46;99.12
1776;BME280;885;42.626;23.200;2023-02-03T01:49:00;165256.69;;;0.43;99.38
1776;BME280;885;42.626;23.200;2023-02-03T01:51:30;165312.75;;;0.63;98.62
1776;BME280;885;42.626;23.200;2023-02-03T01:53:57;165349.72;;;0.77;99.62
1776;BME280;885;42.626;23.200;2023-02-03T01:56:29;165345.59;;;0.75;98.53
1776;BME280;885;42.626;23.200;2023-02-03T01:58:58;165367.53;;;0.84;98.53
1776;BME280;885;42.626;23.200;2023-02-03T02:01:25;165393.50;;;0.93;96.44
1776;BME280;885;42.626;23.200;2023-02-03T02:03:55;165341.50;;;0.74;95.88
1776;BME280;885;42.626;23.200;2023-02-03T02:06:24;165310.06;;;0.62;96.31
1776;BME280;885;42.626;23.200;2023-02-03T02:08:51;165338.78;;;0.73;97.67
1776;BME280;885;42.626;23.200;2023-02-03T02:11:19;165326.47;;;0.68;97.43
1776;BME280;885;42.626;23.200;2023-02-03T02:13:49;165286.78;;;0.54;98.44
1776;BME280;885;42.626;23.200;2023-02-03T02:16:23;165269.00;;;0.47;99.30
1776;BME280;885;42.626;23.200;2023-02-03T02:19:01;165289.50;;;0.55;98.34
1776;BME280;885;42.626;23.200;2023-02-03T02:21:52;165270.38;;;0.48;97.94
1776;BME280;885;42.626;23.200;2023-02-03T02:24:44;165310.06;;;0.62;97.56
1776;BME280;885;42.626;23.200;2023-02-03T02:27:27;165373.00;;;0.86;96.31
1776;BME280;885;42.626;23.200;2023-02-03T02:30:35;165321.00;;;0.66;95.33
1776;BME280;885;42.626;23.200;2023-02-03T02:33:22;165314.16;;;0.64;95.45
1776;BME280;885;42.626;23.200;2023-02-03T02:35:57;165349.72;;;0.77;96.31
1776;BME280;885;42.626;23.200;2023-02-03T02:38:40;165311.38;;;0.63;97.12
1776;BME280;885;42.626;23.200;2023-02-03T02:41:16;165330.56;;;0.70;95.97
1776;BME280;885;42.626;23.200;2023-02-03T02:43:48;165264.91;;;0.46;96.78
1776;BME280;885;42.626;23.200;2023-02-03T02:46:24;165301.81;;;0.59;97.40
1776;BME280;885;42.626;23.200;2023-02-03T02:49:00;165275.84;;;0.50;96.38
1776;BME280;885;42.626;23.200;2023-02-03T02:51:30;165318.22;;;0.65;96.51
1776;BME280;885;42.626;23.200;2023-02-03T02:54:01;165237.50;;;0.36;95.45
1776;BME280;885;42.626;23.200;2023-02-03T02:56:31;165270.38;;;0.48;95.25
1776;BME280;885;42.626;23.200;2023-02-03T02:59:01;165264.91;;;0.46;95.23
1776;BME280;885;42.626;23.200;2023-02-03T03:01:29;165230.72;;;0.33;96.83
1776;BME280;885;42.626;23.200;2023-02-03T03:04:00;165229.34;;;0.33;96.80
1776;BME280;885;42.626;23.200;2023-02-03T03:06:31;165218.41;;;0.29;96.90
1776;BME280;885;42.626;23.200;2023-02-03T03:09:01;165251.22;;;0.41;97.93
1776;BME280;885;42.626;23.200;2023-02-03T03:11:32;165267.63;;;0.47;96.64
1776;BME280;885;42.626;23.200;2023-02-03T03:14:04;165270.38;;;0.48;96.11
1776;BME280;885;42.626;23.200;2023-02-03T03:16:35;165251.22;;;0.41;96.82
1776;BME280;885;42.626;23.200;2023-02-03T03:19:08;165281.31;;;0.52;96.68
1776;BME280;885;42.626;23.200;2023-02-03T03:21:39;165292.25;;;0.56;95.70
1776;BME280;885;42.626;23.200;2023-02-03T03:24:09;165275.84;;;0.50;96.00
1776;BME280;885;42.626;23.200;2023-02-03T03:26:41;165279.94;;;0.51;96.05
1776;BME280;885;42.626;23.200;2023-02-03T03:29:12;165300.44;;;0.59;96.79
1776;BME280;885;42.626;23.200;2023-02-03T03:31:41;165260.78;;;0.44;95.40
1776;BME280;885;42.626;23.200;2023-02-03T03:34:11;165203.31;;;0.23;96.91
1776;BME280;885;42.626;23.200;2023-02-03T03:36:41;165234.81;;;0.35;96.72
1776;BME280;885;42.626;23.200;2023-02-03T03:39:14;165286.78;;;0.54;96.16
1776;BME280;885;42.626;23.200;2023-02-03T03:41:48;165270.38;;;0.48;96.23
1776;BME280;885;42.626;23.200;2023-02-03T03:44:21;165248.50;;;0.40;95.80
1776;BME280;885;42.626;23.200;2023-02-03T03:46:53;165203.31;;;0.23;96.59
1776;BME280;885;42.626;23.200;2023-02-03T03:49:24;165150.00;;;0.04;97.75
1776;BME280;885;42.626;23.200;2023-02-03T03:51:56;165180.13;;;0.15;96.05
1776;BME280;885;42.626;23.200;2023-02-03T03:54:25;165150.00;;;0.04;95.73
1776;BME280;885;42.626;23.200;2023-02-03T03:56:57;165137.69;;;-0.01;96.32
1776;BME280;885;42.626;23.200;2023-02-03T03:59:29;165185.59;;;0.17;96.34
1776;BME280;885;42.626;23.200;2023-02-03T04:01:58;165225.25;;;0.31;97.01
1776;BME280;885;42.626;23.200;2023-02-03T04:04:31;165242.97;;;0.38;97.72
1776;BME280;885;42.626;23.200;2023-02-03T04:06:58;165184.19;;;0.16;95.12
1776;BME280;885;42.626;23.200;2023-02-03T04:09:25;165218.41;;;0.29;95.86
1776;BME280;885;42.626;23.200;2023-02-03T04:32:33;165238.91;;;0.36;94.11
1776;BME280;885;42.626;23.200;2023-02-03T04:35:01;165263.53;;;0.45;94.32
1776;BME280;885;42.626;23.200;2023-02-03T04:37:27;165259.44;;;0.44;93.13
1776;BME280;885;42.626;23.200;2023-02-03T04:39:54;165274.47;;;0.49;94.29
1776;BME280;885;42.626;23.200;2023-02-03T04:42:22;165284.03;;;0.53;93.77
1776;BME280;885;42.626;23.200;2023-02-03T04:44:49;165244.38;;;0.38;94.10
1776;BME280;885;42.626;23.200;2023-02-03T04:47:17;165207.47;;;0.25;94.83
1776;BME280;885;42.626;23.200;2023-02-03T04:49:45;165193.75;;;0.20;95.35
1776;BME280;885;42.626;23.200;2023-02-03T04:52:12;165128.16;;;-0.05;95.63
1776;BME280;885;42.626;23.200;2023-02-03T04:54:39;165141.78;;;0.00;96.30
1776;BME280;885;42.626;23.200;2023-02-03T04:57:06;165192.38;;;0.19;96.31
1776;BME280;885;42.626;23.200;2023-02-03T04:59:33;165226.56;;;0.32;95.88
1776;BME280;885;42.626;23.200;2023-02-03T05:02:01;165248.50;;;0.40;95.37
1776;BME280;885;42.626;23.200;2023-02-03T05:04:28;165174.59;;;0.13;95.09
1776;BME280;885;42.626;23.200;2023-02-03T05:06:56;165162.31;;;0.08;94.87
1776;BME280;885;42.626;23.200;2023-02-03T05:09:23;165197.84;;;0.21;94.97
1776;BME280;885;42.626;23.200;2023-02-03T05:11:50;165128.16;;;-0.05;95.74
1776;BME280;885;42.626;23.200;2023-02-03T05:14:16;165156.84;;;0.06;96.08
1776;BME280;885;42.626;23.200;2023-02-03T05:16:44;165141.78;;;0.00;95.57
1776;BME280;885;42.626;23.200;2023-02-03T05:19:11;165181.44;;;0.15;95.49
1776;BME280;885;42.626;23.200;2023-02-03T05:21:37;165196.53;;;0.21;95.62
1776;BME280;885;42.626;23.200;2023-02-03T05:24:06;165162.31;;;0.08;95.78
1776;BME280;885;42.626;23.200;2023-02-03T05:26:34;165208.78;;;0.25;95.63
1776;BME280;885;42.626;23.200;2023-02-03T05:29:01;165177.34;;;0.14;96.01
1776;BME280;885;42.626;23.200;2023-02-03T05:31:28;165114.44;;;-0.10;96.17
1776;BME280;885;42.626;23.200;2023-02-03T05:33:54;165163.66;;;0.09;97.17
1776;BME280;885;42.626;23.200;2023-02-03T06:11:54;165215.63;;;0.28;94.37
1776;BME280;885;42.626;23.200;2023-02-03T06:14:21;165197.84;;;0.21;94.15
1776;BME280;885;42.626;23.200;2023-02-03T06:16:48;165147.25;;;0.03;93.46
1776;BME280;885;42.626;23.200;2023-02-03T06:19:14;165139.06;;;-0.01;94.89
1776;BME280;885;42.626;23.200;2023-02-03T06:21:41;165158.19;;;0.07;94.41
1776;BME280;885;42.626;23.200;2023-02-03T06:24:08;165155.47;;;0.06;93.54
1776;BME280;885;42.626;23.200;2023-02-03T06:26:35;165110.34;;;-0.11;93.10
1776;BME280;885;42.626;23.200;2023-02-03T06:29:04;165169.13;;;0.11;93.02
1776;BME280;885;42.626;23.200;2023-02-03T06:31:30;165124.00;;;-0.06;93.56
1776;BME280;885;42.626;23.200;2023-02-03T06:33:57;165076.19;;;-0.24;93.71
1776;BME280;885;42.626;23.200;2023-02-03T06:36:26;165089.81;;;-0.19;92.74
1776;BME280;885;42.626;23.200;2023-02-03T06:38:53;165048.84;;;-0.34;93.83
1776;BME280;885;42.626;23.200;2023-02-03T06:41:20;165074.81;;;-0.24;93.36
1776;BME280;885;42.626;23.200;2023-02-03T06:43:51;165136.31;;;-0.02;93.35
1776;BME280;885;42.626;23.200;2023-02-03T06:46:19;165169.13;;;0.11;92.27
1776;BME280;885;42.626;23.200;2023-02-03T06:48:46;165132.22;;;-0.03;92.06
1776;BME280;885;42.626;23.200;2023-02-03T06:51:13;165121.28;;;-0.07;91.95
1776;BME280;885;42.626;23.200;2023-02-03T06:53:40;165140.47;;;0.00;91.92
1776;BME280;885;42.626;23.200;2023-02-03T06:56:07;165199.22;;;0.22;91.89
1776;BME280;885;42.626;23.200;2023-02-03T06:58:33;165154.09;;;0.05;91.19
1776;BME280;885;42.626;23.200;2023-02-03T07:01:00;165144.53;;;0.02;91.70
1776;BME280;885;42.626;23.200;2023-02-03T07:03:28;165171.88;;;0.12;90.58
1776;BME280;885;42.626;23.200;2023-02-03T07:05:55;165218.41;;;0.29;91.53
1776;BME280;885;42.626;23.200;2023-02-03T07:08:22;165277.19;;;0.50;91.59
1776;BME280;885;42.626;23.200;2023-02-03T07:10:52;165288.19;;;0.54;90.73
1776;BME280;885;42.626;23.200;2023-02-03T07:13:19;165189.66;;;0.18;89.83
1776;BME280;885;42.626;23.200;2023-02-03T07:15:46;165189.66;;;0.18;90.42
1776;BME280;885;42.626;23.200;2023-02-03T07:18:13;165189.66;;;0.18;90.50
1776;BME280;885;42.626;23.200;2023-02-03T07:20:42;165141.78;;;0.00;91.10
1776;BME280;885;42.626;23.200;2023-02-03T07:23:08;165114.44;;;-0.10;91.25
1776;BME280;885;42.626;23.200;2023-02-03T07:25:36;165160.94;;;0.08;90.73
1776;BME280;885;42.626;23.200;2023-02-03T07:28:03;165203.31;;;0.23;89.99
1776;BME280;885;42.626;23.200;2023-02-03T07:30:29;165191.06;;;0.19;88.92
1776;BME280;885;42.626;23.200;2023-02-03T07:32:56;165218.41;;;0.29;89.57
1776;BME280;885;42.626;23.200;2023-02-03T07:35:23;165238.91;;;0.36;89.85
1776;BME280;885;42.626;23.200;2023-02-03T07:37:51;165215.63;;;0.28;88.77
1776;BME280;885;42.626;23.200;2023-02-03T07:40:18;165249.84;;;0.40;88.30
1776;BME280;885;42.626;23.200;2023-02-03T07:42:47;165139.06;;;-0.01;88.64
1776;BME280;885;42.626;23.200;2023-02-03T07:45:16;165133.59;;;-0.03;89.82
1776;BME280;885;42.626;23.200;2023-02-03T07:47:43;165188.28;;;0.18;86.93
1776;BME280;885;42.626;23.200;2023-02-03T07:50:11;165223.88;;;0.31;88.12
1776;BME280;885;42.626;23.200;2023-02-03T07:52:38;165255.31;;;0.42;88.15
1776;BME280;885;42.626;23.200;2023-02-03T07:55:07;165211.53;;;0.26;86.50
1776;BME280;885;42.626;23.200;2023-02-03T07:57:34;165229.34;;;0.33;85.87
1776;BME280;885;42.626;23.200;2023-02-03T08:00:02;165285.41;;;0.53;86.94
1776;BME280;885;42.626;23.200;2023-02-03T08:02:29;165222.47;;;0.30;88.58
1776;BME280;885;42.626;23.200;2023-02-03T08:04:56;165259.44;;;0.44;89.36
1776;BME280;885;42.626;23.200;2023-02-03T08:07:23;165264.91;;;0.46;88.16
1776;BME280;885;42.626;23.200;2023-02-03T08:09:50;165270.38;;;0.48;85.69
1776;BME280;885;42.626;23.200;2023-02-03T08:12:18;165310.06;;;0.62;86.70
1776;BME280;885;42.626;23.200;2023-02-03T08:14:45;165344.25;;;0.75;85.96
1776;BME280;885;42.626;23.200;2023-02-03T08:17:12;165363.38;;;0.82;85.75
1776;BME280;885;42.626;23.200;2023-02-03T08:19:39;165368.84;;;0.84;84.62
1776;BME280;885;42.626;23.200;2023-02-03T08:22:06;165349.72;;;0.77;84.80
1776;BME280;885;42.626;23.200;2023-02-03T08:24:33;165422.25;;;1.04;84.66
1776;BME280;885;42.626;23.200;2023-02-03T08:27:00;165518.06;;;1.39;86.20
1776;BME280;885;42.626;23.200;2023-02-03T08:29:28;165550.91;;;1.51;83.19
1776;BME280;885;42.626;23.200;2023-02-03T08:31:55;165561.91;;;1.55;82.04
1776;BME280;885;42.626;23.200;2023-02-03T08:34:22;165524.91;;;1.41;80.48
1776;BME280;885;42.626;23.200;2023-02-03T08:36:49;165535.88;;;1.45;80.88
1776;BME280;885;42.626;23.200;2023-02-03T08:39:16;165448.22;;;1.13;80.90
1776;BME280;885;42.626;23.200;2023-02-03T08:41:45;165489.31;;;1.28;78.75
1776;BME280;885;42.626;23.200;2023-02-03T08:44:12;165493.44;;;1.30;79.24
1776;BME280;885;42.626;23.200;2023-02-03T08:46:40;165494.78;;;1.30;78.85
1776;BME280;885;42.626;23.200;2023-02-03T08:49:08;165470.19;;;1.21;81.07
1776;BME280;885;42.626;23.200;2023-02-03T08:51:35;165438.66;;;1.10;81.43
1776;BME280;885;42.626;23.200;2023-02-03T08:54:02;165425.00;;;1.05;82.52
1776;BME280;885;42.626;23.200;2023-02-03T08:56:29;165478.38;;;1.24;83.11
1776;BME280;885;42.626;23.200;2023-02-03T08:58:58;165530.41;;;1.43;83.07
1776;BME280;885;42.626;23.200;2023-02-03T09:01:25;165538.63;;;1.46;82.75
1776;BME280;885;42.626;23.200;2023-02-03T09:03:53;165559.16;;;1.54;83.59
1776;BME280;885;42.626;23.200;2023-02-03T09:06:20;165574.19;;;1.59;82.16
1776;BME280;885;42.626;23.200;2023-02-03T09:08:47;165627.63;;;1.79;82.43
1776;BME280;885;42.626;23.200;2023-02-03T09:11:15;165655.00;;;1.89;79.26
1776;BME280;885;42.626;23.200;2023-02-03T09:13:42;165652.28;;;1.88;79.51
1776;BME280;885;42.626;23.200;2023-02-03T09:16:10;165694.72;;;2.04;79.39
1776;BME280;885;42.626;23.200;2023-02-03T09:18:37;165738.59;;;2.20;78.53
1776;BME280;885;42.626;23.200;2023-02-03T09:21:07;165744.06;;;2.22;78.73
1776;BME280;885;42.626;23.200;2023-02-03T09:23:35;165750.88;;;2.24;78.39
1776;BME280;885;42.626;23.200;2023-02-03T09:26:03;165766.00;;;2.30;77.64
1776;BME280;885;42.626;23.200;2023-02-03T09:28:30;165678.28;;;1.98;76.74
1776;BME280;885;42.626;23.200;2023-02-03T09:30:59;165552.19;;;1.52;77.61
1776;BME280;885;42.626;23.200;2023-02-03T09:33:26;165498.78;;;1.33;79.76
1776;BME280;885;42.626;23.200;2023-02-03T09:35:53;165601.63;;;1.70;79.33
1776;BME280;885;42.626;23.200;2023-02-03T09:38:22;165615.28;;;1.75;78.25
1776;BME280;885;42.626;23.200;2023-02-03T09:40:51;165601.47;;;1.71;77.56
1776;BME280;885;42.626;23.200;2023-02-03T09:43:29;165612.44;;;1.75;78.07
1776;BME280;885;42.626;23.200;2023-02-03T09:46:04;165746.78;;;2.23;76.80
1776;BME280;885;42.626;23.200;2023-02-03T09:48:36;165887.91;;;2.75;76.03
1776;BME280;885;42.626;23.200;2023-02-03T09:51:07;165992.13;;;3.13;72.44
1776;BME280;885;42.626;23.200;2023-02-03T09:53:46;166204.72;;;3.91;72.81
1776;BME280;885;42.626;23.200;2023-02-03T09:56:21;166343.31;;;4.42;69.31
1776;BME280;885;42.626;23.200;2023-02-03T09:58:50;166465.47;;;4.87;67.50
1776;BME280;885;42.626;23.200;2023-02-03T10:01:17;166626.16;;;5.45;66.32
1776;BME280;885;42.626;23.200;2023-02-03T10:03:50;166759.50;;;5.94;62.61
1776;BME280;885;42.626;23.200;2023-02-03T10:06:24;166781.31;;;6.03;61.49
1776;BME280;885;42.626;23.200;2023-02-03T10:09:18;166270.41;;;5.51;62.21
1776;BME280;885;42.626;23.200;2023-02-03T10:12:15;166355.47;;;5.82;62.89
1776;BME280;885;42.626;23.200;2023-02-03T10:14:53;165612.44;;;5.80;59.81
1776;BME280;885;42.626;23.200;2023-02-03T10:17:26;165641.16;;;5.90;60.80
1776;BME280;885;42.626;23.200;2023-02-03T10:20:01;166143.31;;;6.39;60.46
1776;BME280;885;42.626;23.200;2023-02-03T10:22:32;164938.94;;;6.03;59.53
1776;BME280;885;42.626;23.200;2023-02-03T10:25:07;164512.47;;;5.81;60.07
1776;BME280;885;42.626;23.200;2023-02-03T10:27:42;164024.22;;;5.36;62.13
1776;BME280;885;42.626;23.200;2023-02-03T10:30:20;163145.09;;;4.82;62.88
1776;BME280;885;42.626;23.200;2023-02-03T10:32:48;163447.69;;;4.58;65.79
1776;BME280;885;42.626;23.200;2023-02-03T10:35:17;163370.84;;;4.30;67.93
1776;BME280;885;42.626;23.200;2023-02-03T10:37:48;163296.81;;;4.02;69.22
1776;BME280;885;42.626;23.200;2023-02-03T10:40:19;162774.16;;;3.44;72.06
1776;BME280;885;42.626;23.200;2023-02-03T10:42:48;162277.91;;;2.95;74.20
1776;BME280;885;42.626;23.200;2023-02-03T10:45:35;162279.19;;;2.95;73.66
1776;BME280;885;42.626;23.200;2023-02-03T10:48:03;161910.53;;;2.94;72.40
1776;BME280;885;42.626;23.200;2023-02-03T10:50:31;161958.63;;;3.12;71.08
1776;BME280;885;42.626;23.200;2023-02-03T10:53:23;161963.97;;;3.14;70.95
1776;BME280;885;42.626;23.200;2023-02-03T10:56:00;161573.88;;;3.05;68.91
1776;BME280;885;42.626;23.200;2023-02-03T10:58:29;161142.63;;;2.81;70.46
1776;BME280;885;42.626;23.200;2023-02-03T11:01:04;161540.53;;;2.93;70.87
1776;BME280;885;42.626;23.200;2023-02-03T11:03:32;159533.31;;;2.25;68.94
1776;BME280;885;42.626;23.200;2023-02-03T11:06:08;159135.09;;;2.12;67.19
1776;BME280;885;42.626;23.200;2023-02-03T11:08:37;158317.06;;;1.79;68.18
1776;BME280;885;42.626;23.200;2023-02-03T11:11:07;158739.72;;;2.01;67.03
1776;BME280;885;42.626;23.200;2023-02-03T11:13:35;159530.69;;;2.24;67.85
1776;BME280;885;42.626;23.200;2023-02-03T11:16:04;159217.84;;;2.44;65.86
1776;BME280;885;42.626;23.200;2023-02-03T11:18:46;159245.44;;;2.55;64.20
1776;BME280;885;42.626;23.200;2023-02-03T11:21:17;158896.97;;;2.61;63.11
1776;BME280;885;42.626;23.200;2023-02-03T11:23:48;159651.81;;;2.70;65.22
1776;BME280;885;42.626;23.200;2023-02-03T11:26:22;160038.66;;;2.78;67.06
1776;BME280;885;42.626;23.200;2023-02-03T11:28:51;160415.00;;;2.82;68.26
1776;BME280;885;42.626;23.200;2023-02-03T11:31:24;160832.53;;;3.02;68.45
1776;BME280;885;42.626;23.200;2023-02-03T11:33:57;161672.53;;;3.43;67.96
1776;BME280;885;42.626;23.200;2023-02-03T11:36:29;160565.88;;;3.40;63.69
1776;BME280;885;42.626;23.200;2023-02-03T11:39:27;161773.94;;;3.81;65.64
1776;BME280;885;42.626;23.200;2023-02-03T11:41:55;161845.97;;;4.08;63.09
1776;BME280;885;42.626;23.200;2023-02-03T11:44:24;162359.81;;;4.63;61.58
1776;BME280;885;42.626;23.200;2023-02-03T11:46:56;162096.94;;;5.03;58.15
1776;BME280;885;42.626;23.200;2023-02-03T11:49:58;161647.03;;;4.71;59.38
1776;BME280;885;42.626;23.200;2023-02-03T11:52:40;160838.81;;;4.43;59.61
1776;BME280;885;42.626;23.200;2023-02-03T11:55:26;162599.41;;;5.53;58.47
1776;BME280;885;42.626;23.200;2023-02-03T12:00:54;161801.63;;;5.30;58.13
1776;BME280;885;42.626;23.200;2023-02-03T12:04:00;161015.13;;;5.10;57.78
1776;BME280;885;42.626;23.200;2023-02-03T12:06:51;164061.38;;;6.87;55.79
1776;BME280;885;42.626;23.200;2023-02-03T12:09:30;162635.59;;;7.05;50.50
1776;BME280;885;42.626;23.200;2023-02-03T12:12:23;160564.66;;;6.18;52.92
1776;BME280;885;42.626;23.200;2023-02-03T12:15:04;159704.13;;;5.71;54.17
1776;BME280;885;42.626;23.200;2023-02-03T12:17:58;157986.00;;;4.74;56.91
1776;BME280;885;42.626;23.200;2023-02-03T12:20:43;156731.03;;;4.14;57.86
1776;BME280;885;42.626;23.200;2023-02-03T12:23:21;156672.97;;;3.91;60.12
1776;BME280;885;42.626;23.200;2023-02-03T12:26:09;156705.22;;;4.04;58.08
1776;BME280;885;42.626;23.200;2023-02-03T12:28:47;156333.88;;;4.02;57.17
1776;BME280;885;42.626;23.200;2023-02-03T12:31:24;156327.44;;;3.99;58.41
1776;BME280;885;42.626;23.200;2023-02-03T12:33:59;156322.28;;;3.97;59.43
1776;BME280;885;42.626;23.200;2023-02-03T12:36:32;156666.50;;;3.89;61.24
1776;BME280;885;42.626;23.200;2023-02-03T12:39:05;155852.16;;;3.57;60.74
1776;BME280;885;42.626;23.200;2023-02-03T12:41:38;156627.78;;;3.74;62.15
1776;BME280;885;42.626;23.200;2023-02-03T12:44:15;157045.53;;;3.94;62.36
1776;BME280;885;42.626;23.200;2023-02-03T12:46:50;157861.16;;;4.26;61.35
1776;BME280;885;42.626;23.200;2023-02-03T12:49:29;159629.25;;;5.42;58.33
1776;BME280;885;42.626;23.200;2023-02-03T12:52:00;159299.97;;;5.56;56.03
1776;BME280;885;42.626;23.200;2023-02-03T12:54:36;158459.66;;;5.16;57.73
1776;BME280;885;42.626;23.200;2023-02-03T12:57:13;159243.59;;;5.35;59.37
1776;BME280;885;42.626;23.200;2023-02-03T12:59:43;158078.34;;;5.10;56.61
1776;BME280;885;42.626;23.200;2023-02-03T13:02:20;155121.81;;;3.57;61.40
1776;BME280;885;42.626;23.200;2023-02-03T13:04:52;155898.41;;;3.75;62.85
1776;BME280;885;42.626;23.200;2023-02-03T13:07:24;155897.09;;;3.74;62.13
1776;BME280;885;42.626;23.200;2023-02-03T13:09:58;162227.03;;;6.90;56.46
1776;BME280;885;42.626;23.200;2023-02-03T13:12:28;164922.47;;;10.08;46.34
1776;BME280;885;42.626;23.200;2023-02-03T13:15:02;161363.91;;;10.63;41.50
1776;BME280;885;42.626;23.200;2023-02-03T13:17:41;153453.09;;;10.09;39.99
1776;BME280;885;42.626;23.200;2023-02-03T13:20:16;155387.31;;;11.89;39.97
1776;BME280;885;42.626;23.200;2023-02-03T13:22:44;152734.41;;;13.16;36.98
1776;BME280;885;42.626;23.200;2023-02-03T13:25:17;148423.25;;;13.75;34.42
1776;BME280;885;42.626;23.200;2023-02-03T13:27:52;146436.41;;;14.77;34.80
1776;BME280;885;42.626;23.200;2023-02-03T13:30:37;136022.00;;;13.00;35.50
1776;BME280;885;42.626;23.200;2023-02-03T13:33:35;120484.06;;;9.02;41.65
1776;BME280;885;42.626;23.200;2023-02-03T13:36:19;126497.97;;;9.77;43.23
1776;BME280;885;42.626;23.200;2023-02-03T13:41:46;123093.66;;;9.25;44.15
1776;BME280;885;42.626;23.200;2023-02-03T13:44:17;118474.75;;;8.08;47.24
1776;BME280;885;42.626;23.200;2023-02-03T13:46:46;114994.88;;;7.03;49.64
1776;BME280;885;42.626;23.200;2023-02-03T13:49:22;109494.00;;;5.77;52.73
1776;BME280;885;42.626;23.200;2023-02-03T13:51:49;103918.00;;;4.78;54.29
1776;BME280;885;42.626;23.200;2023-02-03T13:54:22;106440.56;;;4.60;57.86
1776;BME280;885;42.626;23.200;2023-02-03T13:56:54;105633.16;;;4.51;56.84
1776;BME280;885;42.626;23.200;2023-02-03T13:59:38;101902.38;;;3.89;57.29
1776;BME280;885;42.626;23.200;2023-02-03T14:05:41;100367.19;;;3.12;60.36
1776;BME280;885;42.626;23.200;2023-02-03T14:11:40;104727.41;;;3.50;59.99
1776;BME280;885;42.626;23.200;2023-02-03T14:14:42;104010.56;;;3.45;59.75
1776;BME280;885;42.626;23.200;2023-02-03T14:20:54;112066.84;;;4.94;56.52
1776;BME280;885;42.626;23.200;2023-02-03T14:23:28;108094.41;;;3.99;60.09
1776;BME280;885;42.626;23.200;2023-02-03T14:26:00;111171.56;;;3.99;62.97
1776;BME280;885;42.626;23.200;2023-02-03T14:28:36;113426.16;;;4.43;60.95
1776;BME280;885;42.626;23.200;2023-02-03T14:31:10;111586.28;;;4.28;60.04
1776;BME280;885;42.626;23.200;2023-02-03T14:34:10;110452.72;;;4.02;60.99
1776;BME280;885;42.626;23.200;2023-02-03T14:36:47;109283.13;;;3.55;62.57
1776;BME280;885;42.626;23.200;2023-02-03T14:42:38;105100.16;;;2.63;65.04
1776;BME280;885;42.626;23.200;2023-02-03T14:45:24;105702.44;;;2.69;64.35
1776;BME280;885;42.626;23.200;2023-02-03T14:48:05;106367.88;;;2.69;64.93
1776;BME280;885;42.626;23.200;2023-02-03T14:50:44;106141.13;;;2.59;65.96
1776;BME280;885;42.626;23.200;2023-02-03T14:56:32;107036.28;;;2.69;64.58
1776;BME280;885;42.626;23.200;2023-02-03T14:59:23;106772.06;;;2.50;66.33
1776;BME280;885;42.626;23.200;2023-02-03T15:02:10;107186.53;;;2.50;66.21